Time;durP1;ratioP1;P1;durP2;ratioP2;P2;SDS_P1;SDS_P2;PMS_P1;PMS_P2;Temp;Humidity;BMP_temperature;BMP_pressure;BME280_temperature;BME280_humidity;BME280_pressure;Samples;Min_cycle;Max_cycle;Signal;HPM_P1;HPM_P2
2022/11/10 00:02:21;;;;;;;;;;;;;;;11.89;100.00;98248.88;5117997;28;19984;-62
2022/11/10 00:04:49;;;;;;;;;;;;;;;12.19;100.00;98231.28;5117754;28;19959;-63
2022/11/10 00:07:15;;;;;;;;;;;;;;;12.43;100.00;98230.53;5120125;28;19952;-63
2022/11/10 00:09:41;;;;;;;;;;;;;;;12.60;100.00;98224.88;5121215;28;19925;-63
2022/11/10 00:12:08;;;;;;;;;;;;;;;12.71;100.00;98226.50;5120033;28;19962;-62
2022/11/10 00:17:18;;;;;;;;;;;;;;;12.87;100.00;98224.63;5120799;28;19924;-63
2022/11/10 00:19:44;;;;;;;;;;;;;;;12.94;100.00;98228.63;5121253;28;19927;-62
2022/11/10 00:22:12;;;;;;;;;;;;;;;13.05;100.00;98229.41;5120663;28;19968;-62
2022/11/10 00:24:38;;;;;;;;;;;;;;;13.14;100.00;98227.00;5124276;28;19920;-62
2022/11/10 00:27:05;;;;;;;;;;;;;;;13.14;100.00;98233.19;5118681;28;19959;-63
2022/11/10 00:29:31;;;;;;;;;;;;;;;13.21;100.00;98232.91;5121219;28;19934;-63
2022/11/10 00:31:57;;;;;;;;;;;;;;;13.21;100.00;98233.72;5120920;28;19936;-63
2022/11/10 00:34:24;;;;;;;;;;;;;;;13.22;100.00;98234.50;5121054;28;19979;-62
2022/11/10 00:36:50;;;;;;;;;;;;;;;13.25;100.00;98239.31;5121139;28;20011;-62
2022/11/10 00:39:18;;;;;;;;;;;;;;;13.30;100.00;98250.06;5120428;28;19967;-62
2022/11/10 00:41:44;;;;;;;;;;;;;;;13.28;100.00;98249.50;5121626;28;19928;-63
2022/11/10 00:44:10;;;;;;;;;;;;;;;13.29;100.00;98257.28;5123199;28;19987;-62
2022/11/10 00:46:37;;;;;;;;;;;;;;;13.32;100.00;98267.47;5125144;28;20435;-63
2022/11/10 00:49:03;;;;;;;;;;;;;;;13.35;100.00;98266.94;5124164;28;20018;-62
2022/11/10 00:51:29;;;;;;;;;;;;;;;13.39;100.00;98267.19;5121353;28;19932;-62
2022/11/10 00:53:56;;;;;;;;;;;;;;;13.41;100.00;98275.75;5129501;28;19992;-63
2022/11/10 00:56:24;;;;;;;;;;;;;;;13.41;100.00;98270.41;5121639;28;19924;-63
2022/11/10 00:58:51;;;;;;;;;;;;;;;13.37;100.00;98269.31;5121299;28;19928;-62
2022/11/10 01:01:18;;;;;;;;;;;;;;;13.44;100.00;98275.22;5123911;28;19932;-62
2022/11/10 01:03:44;;;;;;;;;;;;;;;13.44;100.00;98275.22;5124565;28;19924;-63
2022/11/10 01:06:12;;;;;;;;;;;;;;;13.49;100.00;98281.38;5122797;28;20038;-64
2022/11/10 01:08:38;;;;;;;;;;;;;;;13.51;100.00;98270.38;5121792;28;20475;-62
2022/11/10 01:11:05;;;;;;;;;;;;;;;13.51;100.00;98275.75;5122664;28;20010;-62
2022/11/10 01:13:33;;;;;;;;;;;;;;;13.52;100.00;98278.16;5125982;28;19966;-63
2022/11/10 01:16:03;;;;;;;;;;;;;;;13.55;100.00;98289.44;5128036;28;20375;-65
2022/11/10 01:18:29;;;;;;;;;;;;;;;13.56;100.00;98286.47;5123206;28;19927;-62
2022/11/10 01:20:56;;;;;;;;;;;;;;;13.61;100.00;98283.78;5122914;28;20015;-62
2022/11/10 01:23:22;;;;;;;;;;;;;;;13.59;100.00;98288.59;5133175;28;19935;-63
2022/11/10 01:25:49;;;;;;;;;;;;;;;13.62;100.00;98282.69;5125036;28;19958;-62
2022/11/10 01:28:15;;;;;;;;;;;;;;;13.63;100.00;98297.72;5122466;28;19930;-62
2022/11/10 01:30:43;;;;;;;;;;;;;;;13.67;100.00;98295.28;5120893;28;19992;-62
2022/11/10 01:33:09;;;;;;;;;;;;;;;13.67;100.00;98296.09;5122066;28;19946;-61
2022/11/10 01:35:35;;;;;;;;;;;;;;;13.68;100.00;98307.66;5123718;28;19990;-63
2022/11/10 01:38:02;;;;;;;;;;;;;;;13.68;100.00;98307.66;5126770;28;19934;-62
2022/11/10 01:40:28;;;;;;;;;;;;;;;13.76;100.00;98307.88;5119823;28;19927;-63
2022/11/10 01:42:56;;;;;;;;;;;;;;;13.76;100.00;98307.88;5120207;28;19970;-62
2022/11/10 01:45:40;;;;;;;;;;;;;;;13.74;100.00;98310.00;5123316;28;19924;-62
2022/11/10 01:48:08;;;;;;;;;;;;;;;13.77;100.00;98312.16;5115568;28;19950;-63
2022/11/10 01:50:37;;;;;;;;;;;;;;;13.78;100.00;98308.41;5119688;28;19980;-62
2022/11/10 01:53:07;;;;;;;;;;;;;;;13.80;100.00;98324.25;5128711;28;19991;-63
2022/11/10 01:55:34;;;;;;;;;;;;;;;13.82;100.00;98316.72;5123598;28;19928;-62
2022/11/10 01:58:00;;;;;;;;;;;;;;;13.82;100.00;98316.72;5123466;28;19979;-62
2022/11/10 02:00:27;;;;;;;;;;;;;;;13.89;100.00;98319.91;5119691;28;19998;-61
2022/11/10 02:02:55;;;;;;;;;;;;;;;13.92;100.00;98319.38;5119873;28;20563;-62
2022/11/10 02:05:24;;;;;;;;;;;;;;;13.86;100.00;98318.59;5122990;28;19955;-63
2022/11/10 02:07:50;;;;;;;;;;;;;;;13.90;100.00;98322.31;5123345;28;19996;-62
2022/11/10 02:10:18;;;;;;;;;;;;;;;13.92;100.00;98324.75;5120900;28;19963;-62
2022/11/10 02:12:44;;;;;;;;;;;;;;;13.85;100.00;98329.59;5119566;28;19980;-62
2022/11/10 02:15:12;;;;;;;;;;;;;;;13.89;100.00;98333.34;5121076;28;19928;-63
2022/11/10 02:17:39;;;;;;;;;;;;;;;13.87;100.00;98330.13;5122795;28;20003;-62
2022/11/10 02:20:06;;;;;;;;;;;;;;;13.92;100.00;98343.53;5121743;28;19958;-62
2022/11/10 02:22:34;;;;;;;;;;;;;;;13.86;100.00;98342.75;5123620;28;20018;-64
2022/11/10 02:25:00;;;;;;;;;;;;;;;13.92;100.00;98344.34;5122855;28;19960;-62
2022/11/10 02:27:27;;;;;;;;;;;;;;;13.97;100.00;98343.50;5122740;28;19930;-62
2022/11/10 02:29:53;;;;;;;;;;;;;;;13.93;100.00;98345.94;5122564;28;19956;-62
2022/11/10 02:32:19;;;;;;;;;;;;;;;13.95;100.00;98338.44;5119551;28;20023;-62
2022/11/10 02:34:46;;;;;;;;;;;;;;;13.91;100.00;98348.09;5119300;28;19970;-62
2022/11/10 02:37:12;;;;;;;;;;;;;;;13.88;100.00;98345.97;5120907;28;19984;-62
2022/11/10 02:39:40;;;;;;;;;;;;;;;13.96;100.00;98352.63;5122506;28;19931;-62
2022/11/10 02:42:09;;;;;;;;;;;;;;;13.93;100.00;98351.31;5121525;28;19938;-62
2022/11/10 02:44:35;;;;;;;;;;;;;;;13.91;100.00;98361.53;5118880;28;19955;-62
2022/11/10 02:47:02;;;;;;;;;;;;;;;13.87;100.00;98360.44;5119318;28;19959;-63
2022/11/10 02:49:28;;;;;;;;;;;;;;;13.91;100.00;98356.16;5122325;28;19923;-62
2022/11/10 02:51:55;;;;;;;;;;;;;;;13.97;100.00;98355.06;5122520;28;19924;-62
2022/11/10 02:54:21;;;;;;;;;;;;;;;13.99;100.00;98357.44;5126905;28;19993;-63
2022/11/10 02:56:49;;;;;;;;;;;;;;;13.96;100.00;98364.19;5118729;28;19924;-63
2022/11/10 02:59:15;;;;;;;;;;;;;;;13.92;100.00;98368.50;5121081;28;19924;-63
2022/11/10 03:01:41;;;;;;;;;;;;;;;13.93;100.00;98374.66;5121523;28;20010;-62
2022/11/10 03:04:08;;;;;;;;;;;;;;;13.34;100.00;98366.44;5120666;28;19983;-63
2022/11/10 03:06:34;;;;;;;;;;;;;;;13.03;100.00;98380.91;5118546;28;19983;-62
2022/11/10 03:09:01;;;;;;;;;;;;;;;12.96;100.00;98386.53;5119140;28;19924;-63
2022/11/10 03:11:27;;;;;;;;;;;;;;;12.80;100.00;98392.94;5122085;28;19951;-63
2022/11/10 03:13:55;;;;;;;;;;;;;;;12.23;100.00;98398.38;5122065;28;19924;-63
2022/11/10 03:16:21;;;;;;;;;;;;;;;12.20;100.00;98407.75;5118675;28;19956;-63
2022/11/10 03:18:47;;;;;;;;;;;;;;;11.87;100.00;98416.94;5118090;28;19924;-63
2022/11/10 03:21:14;;;;;;;;;;;;;;;11.20;100.00;98410.53;5120352;28;20014;-63
2022/11/10 03:23:40;;;;;;;;;;;;;;;10.95;100.00;98416.47;5129560;28;19978;-63
2022/11/10 03:26:07;;;;;;;;;;;;;;;10.85;100.00;98424.38;5120689;28;19991;-63
2022/11/10 03:28:33;;;;;;;;;;;;;;;10.73;100.00;98421.84;5118227;28;19930;-64
2022/11/10 03:31:01;;;;;;;;;;;;;;;10.60;100.00;98424.09;5118428;28;19984;-62
2022/11/10 03:33:27;;;;;;;;;;;;;;;10.57;100.00;98433.44;5121545;28;19928;-63
2022/11/10 03:35:53;;;;;;;;;;;;;;;10.75;100.00;98430.41;5121562;28;19975;-61
2022/11/10 03:38:20;;;;;;;;;;;;;;;10.72;100.00;98436.25;5118241;28;19979;-63
2022/11/10 03:40:46;;;;;;;;;;;;;;;10.61;100.00;98436.41;5117699;28;19984;-62
2022/11/10 03:43:12;;;;;;;;;;;;;;;10.55;100.00;98437.41;5119853;28;20000;-62
2022/11/10 03:45:39;;;;;;;;;;;;;;;10.33;100.00;98448.09;5121579;28;20015;-62
2022/11/10 03:48:06;;;;;;;;;;;;;;;10.28;100.00;98451.50;5120529;28;19994;-62
2022/11/10 03:50:33;;;;;;;;;;;;;;;10.26;100.00;98458.94;5118262;28;20007;-62
2022/11/10 03:52:59;;;;;;;;;;;;;;;10.12;100.00;98454.19;5126207;28;20003;-62
2022/11/10 03:55:25;;;;;;;;;;;;;;;10.12;100.00;98457.63;5121660;28;20437;-62
2022/11/10 03:57:52;;;;;;;;;;;;;;;10.04;100.00;98462.59;5121438;28;19923;-62
2022/11/10 04:00:18;;;;;;;;;;;;;;;10.00;100.00;98475.63;5118806;28;19996;-63
2022/11/10 04:02:45;;;;;;;;;;;;;;;10.01;100.00;98471.09;5117665;28;19963;-62
2022/11/10 04:10:57;;;;;;;;;;;;;;;10.18;100.00;98482.59;5054800;28;20012;-62
2022/11/10 04:16:07;;;;;;;;;;;;;;;10.27;100.00;98497.13;5124228;28;19949;-63
2022/11/10 04:18:33;;;;;;;;;;;;;;;10.41;100.00;98490.38;5121498;28;19924;-63
2022/11/10 04:21:02;;;;;;;;;;;;;;;10.44;100.00;98500.56;5121317;28;19924;-63
2022/11/10 04:23:33;;;;;;;;;;;;;;;10.50;100.00;98501.41;5132619;28;20090;-63
2022/11/10 04:28:45;;;;;;;;;;;;;;;10.68;100.00;98504.59;5121173;28;19959;-64
2022/11/10 04:31:12;;;;;;;;;;;;;;;10.82;100.00;98510.38;5122890;28;19925;-63
2022/11/10 04:33:40;;;;;;;;;;;;;;;10.81;100.00;98509.56;5124820;28;20031;-63
2022/11/10 04:36:08;;;;;;;;;;;;;;;10.70;100.00;98515.03;5123549;28;20014;-62
2022/11/10 04:38:35;;;;;;;;;;;;;;;10.66;100.00;98517.41;5120794;28;19924;-63
2022/11/10 04:41:01;;;;;;;;;;;;;;;10.69;100.00;98506.22;5121366;28;19943;-63
2022/11/10 04:43:28;;;;;;;;;;;;;;;10.73;100.00;98517.22;5124458;28;19974;-62
2022/11/10 04:45:54;;;;;;;;;;;;;;;10.70;100.00;98523.88;5124496;28;19926;-63
2022/11/10 04:48:20;;;;;;;;;;;;;;;10.58;100.00;98530.38;5121501;28;20007;-63
2022/11/10 04:50:47;;;;;;;;;;;;;;;10.42;100.00;98541.91;5120735;28;19924;-62
2022/11/10 04:53:14;;;;;;;;;;;;;;;10.35;100.00;98547.41;5130706;28;20003;-62
2022/11/10 04:55:41;;;;;;;;;;;;;;;10.36;100.00;98546.38;5124461;28;19924;-62
2022/11/10 04:58:08;;;;;;;;;;;;;;;10.28;100.00;98552.94;5123089;28;19935;-63
2022/11/10 05:00:34;;;;;;;;;;;;;;;10.23;100.00;98555.53;5120646;28;19974;-62
2022/11/10 05:03:01;;;;;;;;;;;;;;;10.22;100.00;98550.44;5121214;28;19998;-62
2022/11/10 05:05:28;;;;;;;;;;;;;;;10.15;100.00;98560.50;5124381;28;19987;-62
2022/11/10 05:07:54;;;;;;;;;;;;;;;10.13;100.00;98557.19;5124169;28;20012;-63
2022/11/10 05:10:22;;;;;;;;;;;;;;;10.20;100.00;98561.38;5103121;28;19979;-63
2022/11/10 05:12:48;;;;;;;;;;;;;;;10.15;100.00;98557.81;5120791;28;19962;-63
2022/11/10 05:15:14;;;;;;;;;;;;;;;10.10;100.00;98566.50;5104375;28;19975;-63
2022/11/10 05:17:41;;;;;;;;;;;;;;;10.20;100.00;98566.72;5124066;28;19920;-62
2022/11/10 05:20:08;;;;;;;;;;;;;;;10.28;100.00;98570.81;5122706;28;19923;-62
2022/11/10 05:22:34;;;;;;;;;;;;;;;10.32;100.00;98569.28;5124695;28;19991;-62
2022/11/10 05:25:00;;;;;;;;;;;;;;;10.32;100.00;98573.78;5122807;28;19985;-63
2022/11/10 05:27:28;;;;;;;;;;;;;;;10.27;100.00;98571.88;5123711;28;19931;-62
2022/11/10 05:29:55;;;;;;;;;;;;;;;10.25;100.00;98576.63;5123830;28;19924;-62
2022/11/10 05:32:21;;;;;;;;;;;;;;;10.27;100.00;98574.56;5120566;28;19920;-63
2022/11/10 05:34:48;;;;;;;;;;;;;;;10.15;100.00;98581.84;5120298;28;20047;-62
2022/11/10 05:37:14;;;;;;;;;;;;;;;9.99;100.00;98595.97;5104183;28;19935;-63
2022/11/10 05:39:40;;;;;;;;;;;;;;;10.01;100.00;98594.66;5123608;28;19971;-62
2022/11/10 05:42:07;;;;;;;;;;;;;;;10.01;100.00;98596.50;5122445;28;19983;-62
2022/11/10 05:44:34;;;;;;;;;;;;;;;9.89;100.00;98606.44;5120071;28;19932;-62
2022/11/10 05:47:00;;;;;;;;;;;;;;;9.72;100.00;98617.91;5120992;28;19924;-61
2022/11/10 05:49:27;;;;;;;;;;;;;;;9.50;100.00;98621.50;5123692;28;19951;-62
2022/11/10 05:51:53;;;;;;;;;;;;;;;9.46;100.00;98629.19;5123711;28;19944;-62
2022/11/10 05:54:20;;;;;;;;;;;;;;;9.54;100.00;98631.44;5128736;28;20273;-63
2022/11/10 05:56:46;;;;;;;;;;;;;;;9.44;100.00;98641.91;5119819;28;20031;-62
2022/11/10 05:59:12;;;;;;;;;;;;;;;9.41;100.00;98642.38;5121821;28;19991;-62
2022/11/10 06:01:40;;;;;;;;;;;;;;;9.41;100.00;98653.06;5123624;28;19923;-62
2022/11/10 06:04:06;;;;;;;;;;;;;;;9.47;100.00;98654.75;5122659;28;20685;-62
2022/11/10 06:06:32;;;;;;;;;;;;;;;9.52;100.00;98659.41;5120208;28;19979;-62
2022/11/10 06:08:59;;;;;;;;;;;;;;;9.61;100.00;98664.13;5119849;28;20150;-62
2022/11/10 06:11:25;;;;;;;;;;;;;;;9.45;100.00;98662.19;5111754;28;19924;-63
2022/11/10 06:13:51;;;;;;;;;;;;;;;9.42;100.00;98668.00;5111808;28;19924;-62
2022/11/10 06:16:18;;;;;;;;;;;;;;;9.63;100.00;98685.19;5110997;28;19979;-61
2022/11/10 06:18:45;;;;;;;;;;;;;;;9.78;100.00;98685.47;5110970;28;20014;-62
2022/11/10 06:21:12;;;;;;;;;;;;;;;9.75;100.00;98693.97;5110778;28;19991;-61
2022/11/10 06:23:38;;;;;;;;;;;;;;;9.62;100.00;98687.06;5123942;28;19970;-63
2022/11/10 06:26:04;;;;;;;;;;;;;;;9.55;100.00;98702.41;5122003;28;20002;-62
2022/11/10 06:28:31;;;;;;;;;;;;;;;9.47;100.00;98702.75;5119071;28;19984;-62
2022/11/10 06:30:57;;;;;;;;;;;;;;;9.43;100.00;98712.28;5119600;28;20031;-62
2022/11/10 06:33:24;;;;;;;;;;;;;;;9.24;100.00;98721.50;5122881;28;19938;-62
2022/11/10 06:35:52;;;;;;;;;;;;;;;9.29;100.00;98728.75;5104923;28;19924;-64
2022/11/10 06:38:19;;;;;;;;;;;;;;;9.33;100.00;98733.41;5120200;28;19987;-63
2022/11/10 06:40:45;;;;;;;;;;;;;;;9.21;100.00;98737.94;5119042;28;19991;-63
2022/11/10 06:43:11;;;;;;;;;;;;;;;9.16;100.00;98743.16;5102720;28;19951;-63
2022/11/10 06:45:38;;;;;;;;;;;;;;;9.35;100.00;98755.28;5122710;28;19924;-61
2022/11/10 06:48:05;;;;;;;;;;;;;;;9.54;100.00;98759.44;5121543;28;20475;-63
2022/11/10 06:50:32;;;;;;;;;;;;;;;9.58;100.00;98760.59;5119016;28;19924;-62
2022/11/10 06:53:00;;;;;;;;;;;;;;;9.51;100.00;98764.44;5126990;28;20019;-62
2022/11/10 06:55:27;;;;;;;;;;;;;;;9.59;100.00;98775.53;5110386;28;19920;-63
2022/11/10 06:57:53;;;;;;;;;;;;;;;9.72;100.00;98783.28;5110487;28;19935;-62
2022/11/10 07:00:20;;;;;;;;;;;;;;;9.84;100.00;98777.13;5110358;28;19991;-62
2022/11/10 07:02:46;;;;;;;;;;;;;;;9.94;100.00;98787.97;5110437;28;19927;-62
2022/11/10 07:05:14;;;;;;;;;;;;;;;9.98;100.00;98787.28;5110377;28;20014;-62
2022/11/10 07:07:40;;;;;;;;;;;;;;;10.03;100.00;98790.03;5110133;28;19930;-62
2022/11/10 07:10:08;;;;;;;;;;;;;;;10.12;100.00;98787.81;5110178;28;19924;-63
2022/11/10 07:12:35;;;;;;;;;;;;;;;10.14;100.00;98791.88;5109659;28;19931;-62
2022/11/10 07:15:01;;;;;;;;;;;;;;;10.16;100.00;98800.47;5110399;28;19979;-62
2022/11/10 07:17:27;;;;;;;;;;;;;;;10.18;100.00;98798.34;5110022;28;19934;-63
2022/11/10 07:19:54;;;;;;;;;;;;;;;10.26;100.00;98811.34;5109896;28;20090;-63
2022/11/10 07:22:20;;;;;;;;;;;;;;;10.27;100.00;98815.59;5112255;28;19999;-62
2022/11/10 07:24:46;;;;;;;;;;;;;;;10.31;100.00;98813.28;5123776;28;19955;-62
2022/11/10 07:27:14;;;;;;;;;;;;;;;10.32;100.00;98808.75;5120104;28;19976;-63
2022/11/10 07:29:40;;;;;;;;;;;;;;;10.34;100.00;98809.34;5121810;28;19930;-63
2022/11/10 07:32:06;;;;;;;;;;;;;;;10.32;100.00;98814.91;5120700;28;19984;-63
2022/11/10 07:34:33;;;;;;;;;;;;;;;10.37;100.00;98816.88;5118455;28;19970;-62
2022/11/10 07:36:59;;;;;;;;;;;;;;;10.38;100.00;98811.28;5118147;28;19984;-62
2022/11/10 07:39:25;;;;;;;;;;;;;;;10.38;100.00;98813.13;5109544;28;19975;-62
2022/11/10 07:41:52;;;;;;;;;;;;;;;10.38;100.00;98821.13;5109852;28;19928;-65
2022/11/10 07:44:19;;;;;;;;;;;;;;;10.16;100.00;98829.00;5109955;28;19928;-62
2022/11/10 07:46:46;;;;;;;;;;;;;;;10.24;100.00;98842.78;5109482;28;20274;-61
2022/11/10 07:49:12;;;;;;;;;;;;;;;10.17;100.00;98846.66;5109495;28;20004;-62
2022/11/10 07:51:38;;;;;;;;;;;;;;;10.17;100.00;98857.31;5109893;28;19959;-62
2022/11/10 07:54:05;;;;;;;;;;;;;;;10.27;100.00;98855.66;5126338;28;19951;-62
2022/11/10 07:56:31;;;;;;;;;;;;;;;10.32;100.00;98862.97;5118370;28;19959;-62
2022/11/10 07:58:57;;;;;;;;;;;;;;;10.34;100.00;98863.53;5118795;28;19930;-62
2022/11/10 08:01:25;;;;;;;;;;;;;;;10.30;100.00;98875.75;5121615;28;19955;-62
2022/11/10 08:03:51;;;;;;;;;;;;;;;10.37;100.00;98880.94;5121540;28;19965;-62
2022/11/10 08:06:18;;;;;;;;;;;;;;;10.27;100.00;98874.34;5118910;28;20289;-62
2022/11/10 08:08:45;;;;;;;;;;;;;;;10.26;100.00;98879.94;5117705;28;20026;-63
2022/11/10 08:11:12;;;;;;;;;;;;;;;10.26;100.00;98885.28;5119428;28;19992;-62
2022/11/10 08:13:38;;;;;;;;;;;;;;;10.27;100.00;98886.91;5121485;28;19979;-62
2022/11/10 08:16:05;;;;;;;;;;;;;;;10.27;100.00;98892.25;5120427;28;20395;-62
2022/11/10 08:18:33;;;;;;;;;;;;;;;10.33;100.00;98895.81;5117706;28;19966;-62
2022/11/10 08:21:00;;;;;;;;;;;;;;;10.35;100.00;98896.38;5117784;28;19931;-62
2022/11/10 08:23:27;;;;;;;;;;;;;;;10.27;100.00;98902.91;5120946;28;20082;-62
2022/11/10 08:25:54;;;;;;;;;;;;;;;10.38;100.00;98894.06;5121245;28;20304;-62
2022/11/10 08:28:20;;;;;;;;;;;;;;;10.39;100.00;98908.22;5118434;28;19982;-61
2022/11/10 08:30:47;;;;;;;;;;;;;;;10.07;100.00;98911.28;5117944;28;19931;-62
2022/11/10 08:33:15;;;;;;;;;;;;;;;9.98;100.00;98915.38;5119726;28;19924;-62
2022/11/10 08:35:43;;;;;;;;;;;;;;;9.96;100.00;98916.66;5121175;28;19983;-63
2022/11/10 08:38:11;;;;;;;;;;;;;;;10.05;100.00;98923.25;5119867;28;19931;-62
2022/11/10 08:40:37;;;;;;;;;;;;;;;10.08;100.00;98920.09;5117468;28;20019;-62
2022/11/10 08:43:06;;;;;;;;;;;;;;;10.02;100.00;98921.03;5118099;28;19924;-62
2022/11/10 08:45:32;;;;;;;;;;;;;;;9.92;100.00;98932.31;5121162;28;19972;-62
2022/11/10 08:47:59;;;;;;;;;;;;;;;9.94;100.00;98946.22;5121159;28;19966;-63
2022/11/10 08:50:26;;;;;;;;;;;;;;;9.88;100.00;98941.81;5109112;28;19930;-62
2022/11/10 08:52:54;;;;;;;;;;;;;;;9.92;100.00;98947.50;5116448;28;19924;-62
2022/11/10 08:55:20;;;;;;;;;;;;;;;9.89;100.00;98947.97;5121369;28;19928;-62
2022/11/10 08:57:47;;;;;;;;;;;;;;;9.87;100.00;98956.22;5120953;28;19980;-62
2022/11/10 09:00:14;;;;;;;;;;;;;;;9.77;100.00;98961.31;5120897;28;19987;-62
2022/11/10 09:02:40;;;;;;;;;;;;;;;9.71;100.00;98965.72;5121142;28;19988;-62
2022/11/10 09:05:07;;;;;;;;;;;;;;;9.77;100.00;98975.47;5122180;28;19970;-62
2022/11/10 09:07:34;;;;;;;;;;;;;;;9.91;100.00;98975.22;5124377;28;19930;-62
2022/11/10 09:10:02;;;;;;;;;;;;;;;9.95;100.00;98973.72;5124005;28;19955;-63
2022/11/10 09:12:28;;;;;;;;;;;;;;;10.06;100.00;98976.38;5120810;28;19988;-62
2022/11/10 09:14:54;;;;;;;;;;;;;;;10.21;100.00;98970.59;5120998;28;19995;-62
2022/11/10 09:17:21;;;;;;;;;;;;;;;10.20;100.00;98987.66;5123987;28;19963;-63
2022/11/10 09:19:47;;;;;;;;;;;;;;;10.29;100.00;98975.56;5124189;28;20437;-63
2022/11/10 09:22:13;;;;;;;;;;;;;;;10.34;100.00;98991.69;5123644;28;19930;-62
2022/11/10 09:24:40;;;;;;;;;;;;;;;10.33;100.00;98989.28;5127044;28;19977;-62
2022/11/10 09:27:07;;;;;;;;;;;;;;;10.33;100.00;98986.59;5121399;28;19967;-62
2022/11/10 09:29:34;;;;;;;;;;;;;;;10.35;100.00;98990.66;5124187;28;19947;-62
2022/11/10 09:32:00;;;;;;;;;;;;;;;10.51;100.00;98989.94;5123701;28;20019;-62
2022/11/10 09:34:26;;;;;;;;;;;;;;;10.56;100.00;99000.69;5120499;28;19988;-62
2022/11/10 09:36:53;;;;;;;;;;;;;;;10.68;100.00;99006.00;5120268;28;19924;-62
2022/11/10 09:39:19;;;;;;;;;;;;;;;10.80;100.00;99012.13;5122635;28;19958;-62
2022/11/10 09:41:46;;;;;;;;;;;;;;;10.76;100.00;99009.16;5123213;28;20014;-63
2022/11/10 09:44:18;;;;;;;;;;;;;;;10.80;100.00;99009.47;5121830;28;19931;-63
2022/11/10 09:46:47;;;;;;;;;;;;;;;11.03;100.00;99011.25;5119999;28;19924;-63
2022/11/10 09:49:23;;;;;;;;;;;;;;;10.88;100.00;99017.13;5121871;28;19924;-63
2022/11/10 09:51:52;;;;;;;;;;;;;;;10.91;100.00;99023.84;5123492;28;19926;-63
2022/11/10 09:54:25;;;;;;;;;;;;;;;10.92;100.00;99028.97;5128887;28;19963;-63
2022/11/10 09:56:54;;;;;;;;;;;;;;;10.75;100.00;99025.41;5119776;28;19996;-63
2022/11/10 09:59:24;;;;;;;;;;;;;;;10.97;100.00;99025.56;5122891;28;19949;-62
2022/11/10 10:01:55;;;;;;;;;;;;;;;11.03;100.00;99022.75;5123589;28;19928;-65
2022/11/10 10:04:30;;;;;;;;;;;;;;;11.06;100.00;99026.81;5120478;28;20543;-63
2022/11/10 10:06:58;;;;;;;;;;;;;;;10.86;100.00;99032.59;5119895;28;19924;-62
2022/11/10 10:09:31;;;;;;;;;;;;;;;10.99;100.00;99026.13;5120118;28;19975;-63
2022/11/10 10:12:03;;;;;;;;;;;;;;;11.17;100.00;99032.09;5119288;28;19979;-63
2022/11/10 10:14:43;;;;;;;;;;;;;;;11.17;100.00;99032.09;5119304;28;20001;-63
2022/11/10 10:17:17;;;;;;;;;;;;;;;11.34;100.00;99030.28;5121016;28;20091;-63
2022/11/10 10:19:48;;;;;;;;;;;;;;;11.35;100.00;99036.44;5123185;28;19928;-62
2022/11/10 10:22:25;;;;;;;;;;;;;;;11.37;100.00;99042.38;5122375;28;20004;-63
2022/11/10 10:24:53;;;;;;;;;;;;;;;11.39;100.00;99048.28;5124133;28;20332;-63
2022/11/10 10:27:22;;;;;;;;;;;;;;;11.47;100.00;99057.78;5122206;28;20050;-63
2022/11/10 10:29:50;;;;;;;;;;;;;;;11.05;100.00;99049.25;5122786;28;19984;-64
2022/11/10 10:32:17;;;;;;;;;;;;;;;11.20;100.00;99049.53;5120398;28;19928;-64
2022/11/10 10:34:44;;;;;;;;;;;;;;;11.15;100.00;99062.81;5119372;28;19991;-63
2022/11/10 10:37:22;;;;;;;;;;;;;;;11.45;100.00;99066.03;5120658;28;20228;-62
2022/11/10 10:39:49;;;;;;;;;;;;;;;11.65;100.00;99063.72;5122630;28;19924;-62
2022/11/10 10:42:21;;;;;;;;;;;;;;;11.45;100.00;99065.25;5120451;28;19924;-62
2022/11/10 10:45:02;;;;;;;;;;;;;;;11.38;100.00;99060.03;5119346;28;20416;-64
2022/11/10 10:47:37;;;;;;;;;;;;;;;11.65;100.00;99057.56;5109596;28;19949;-62
2022/11/10 10:50:27;;;;;;;;;;;;;;;11.67;100.00;99060.78;5110615;28;19973;-62
2022/11/10 10:53:08;;;;;;;;;;;;;;;11.48;100.00;99060.19;5117695;28;20035;-63
2022/11/10 10:55:35;;;;;;;;;;;;;;;11.22;100.00;99055.47;5107975;28;19928;-63
2022/11/10 10:58:02;;;;;;;;;;;;;;;11.34;100.00;99059.72;5110441;28;19963;-62
2022/11/10 11:00:29;;;;;;;;;;;;;;;11.04;100.00;99058.31;5110376;28;19993;-62
2022/11/10 11:03:04;;;;;;;;;;;;;;;11.36;100.00;99048.75;5109992;28;19992;-62
2022/11/10 11:05:30;;;;;;;;;;;;;;;11.55;100.00;99060.88;5110100;28;19920;-63
2022/11/10 11:07:58;;;;;;;;;;;;;;;11.41;100.00;99054.22;5118320;28;19992;-63
2022/11/10 11:10:25;;;;;;;;;;;;;;;11.03;100.00;99054.00;5121871;28;20022;-62
2022/11/10 11:12:52;;;;;;;;;;;;;;;11.00;100.00;99051.81;5122022;28;19951;-63
2022/11/10 11:15:25;;;;;;;;;;;;;;;11.00;100.00;99038.44;5119052;28;20018;-63
2022/11/10 11:17:55;;;;;;;;;;;;;;;11.12;100.00;99028.53;5118342;28;19920;-62
2022/11/10 11:20:26;;;;;;;;;;;;;;;11.16;100.00;99041.19;5121083;28;19935;-63
2022/11/10 11:22:56;;;;;;;;;;;;;;;11.26;100.00;99035.22;5121018;28;19998;-63
2022/11/10 11:25:27;;;;;;;;;;;;;;;11.19;100.00;99029.19;5113104;28;20014;-63
2022/11/10 11:28:00;;;;;;;;;;;;;;;11.45;100.00;99033.16;5121317;28;19995;-63
2022/11/10 11:30:31;;;;;;;;;;;;;;;11.64;100.00;99038.00;5109270;28;19991;-63
2022/11/10 11:33:04;;;;;;;;;;;;;;;11.49;100.00;99040.44;5109344;28;19988;-63
2022/11/10 11:35:37;;;;;;;;;;;;;;;11.67;100.00;99047.41;5113394;28;19979;-64
2022/11/10 11:38:08;;;;;;;;;;;;;;;11.29;100.00;99040.09;5120889;28;20019;-62
2022/11/10 11:40:40;;;;;;;;;;;;;;;11.24;100.00;99050.66;5117644;28;19948;-63
2022/11/10 11:43:14;;;;;;;;;;;;;;;11.52;100.00;99045.31;5118636;28;19999;-63
2022/11/10 11:45:49;;;;;;;;;;;;;;;11.74;100.00;99042.75;5102732;28;21203;-63
2022/11/10 11:48:24;;;;;;;;;;;;;;;11.62;100.00;99050.84;5119113;28;19987;-63
2022/11/10 11:50:54;;;;;;;;;;;;;;;11.48;100.00;99046.81;5099589;28;20010;-63
2022/11/10 11:53:27;;;;;;;;;;;;;;;11.55;100.00;99055.53;5125802;28;19978;-63
2022/11/10 11:56:05;;;;;;;;;;;;;;;11.62;100.00;99063.41;5116779;28;19978;-63
2022/11/10 11:58:37;;;;;;;;;;;;;;;12.07;100.00;99069.53;5109477;28;19928;-63
2022/11/10 12:01:10;;;;;;;;;;;;;;;12.32;100.00;99067.22;5109408;28;19958;-62
2022/11/10 12:03:45;;;;;;;;;;;;;;;12.09;100.00;99058.59;5109160;28;19996;-62
2022/11/10 12:06:24;;;;;;;;;;;;;;;11.82;100.00;99050.41;5109246;28;19924;-63
2022/11/10 12:08:57;;;;;;;;;;;;;;;11.85;100.00;99050.69;5109423;28;19955;-63
2022/11/10 12:11:28;;;;;;;;;;;;;;;11.98;100.00;99043.41;5108973;28;19924;-63
2022/11/10 12:13:59;;;;;;;;;;;;;;;11.90;100.00;99042.78;5109087;28;19974;-63
2022/11/10 12:16:26;;;;;;;;;;;;;;;11.90;100.00;99048.13;5108905;28;19950;-63
2022/11/10 12:18:58;;;;;;;;;;;;;;;11.96;100.00;99040.97;5108971;28;19924;-62
2022/11/10 12:21:33;;;;;;;;;;;;;;;11.89;100.00;99027.75;5109066;28;20029;-62
2022/11/10 12:24:06;;;;;;;;;;;;;;;11.88;100.00;99023.44;5099089;28;19963;-63
2022/11/10 12:26:39;;;;;;;;;;;;;;;11.94;100.00;99024.38;5110168;28;19980;-63
2022/11/10 12:29:13;;;;;;;;;;;;;;;12.21;100.00;99027.16;5111849;28;19932;-62
2022/11/10 12:31:44;;;;;;;;;;;;;;;12.00;100.00;99027.91;5111603;28;19920;-62
2022/11/10 12:34:18;;;;;;;;;;;;;;;12.19;100.00;99024.72;5113627;28;19920;-63
2022/11/10 12:36:49;;;;;;;;;;;;;;;12.46;100.00;99024.84;5115661;28;19920;-63
2022/11/10 12:39:19;;;;;;;;;;;;;;;12.19;100.00;99026.59;5115804;28;19927;-63
2022/11/10 12:41:49;;;;;;;;;;;;;;;12.56;100.00;99034.88;5115792;28;19947;-63
2022/11/10 12:44:20;;;;;;;;;;;;;;;12.69;100.00;99035.31;5112572;28;19942;-63
2022/11/10 12:46:49;;;;;;;;;;;;;;;12.68;100.00;99035.56;5113006;28;19924;-63
2022/11/10 12:49:17;;;;;;;;;;;;;;;12.81;100.00;99027.94;5113078;28;19992;-63
2022/11/10 12:51:50;;;;;;;;;;;;;;;12.85;100.00;99026.41;5113162;28;19930;-63
2022/11/10 12:54:19;;;;;;;;;;;;;;;12.79;100.00;99030.09;5121099;28;19983;-63
2022/11/10 12:56:49;;;;;;;;;;;;;;;12.77;100.00;99042.13;5121469;28;19928;-62